createdAt,value
2023-05-08T00:01:51.970Z,38.61
2023-05-08T00:04:20.375Z,38.50
2023-05-08T00:06:46.990Z,38.61
2023-05-08T00:09:13.410Z,38.81
2023-05-08T00:11:39.726Z,38.57
2023-05-08T00:14:06.187Z,38.60
2023-05-08T00:16:32.674Z,38.53
2023-05-08T00:18:59.749Z,38.47
2023-05-08T00:21:26.131Z,38.50
2023-05-08T00:23:52.464Z,38.44
2023-05-08T00:26:18.935Z,38.52
2023-05-08T00:28:45.264Z,38.45
2023-05-08T00:31:11.933Z,38.30
2023-05-08T00:33:38.260Z,38.49
2023-05-08T00:36:04.802Z,38.54
2023-05-08T00:38:31.546Z,38.48
2023-05-08T00:40:58.190Z,38.46
2023-05-08T00:43:27.945Z,38.53
2023-05-08T00:45:54.788Z,38.61
2023-05-08T00:48:21.280Z,38.49
2023-05-08T00:50:47.606Z,38.30
2023-05-08T00:53:13.927Z,38.50
2023-05-08T00:55:40.247Z,38.70
2023-05-08T00:58:06.553Z,38.52
2023-05-08T01:00:32.873Z,38.52
2023-05-08T01:03:00.127Z,38.55
2023-05-08T01:05:29.328Z,38.52
2023-05-08T01:07:55.650Z,38.59
2023-05-08T01:10:21.964Z,38.54
2023-05-08T01:12:54.326Z,38.55
2023-05-08T01:15:22.709Z,38.60
2023-05-08T01:18:07.830Z,38.42
2023-05-08T01:20:37.091Z,38.41
2023-05-08T01:23:09.358Z,38.41
2023-05-08T01:25:38.912Z,38.53
2023-05-08T01:28:14.420Z,38.39
2023-05-08T01:30:59.638Z,38.22
2023-05-08T01:33:44.691Z,38.51
2023-05-08T01:36:17.288Z,38.35
2023-05-08T01:38:48.160Z,38.31
2023-05-08T01:41:16.295Z,38.41
2023-05-08T01:43:50.539Z,38.34
2023-05-08T01:46:18.586Z,38.29
2023-05-08T01:48:49.937Z,38.45
2023-05-08T01:51:20.699Z,38.42
2023-05-08T01:53:51.576Z,38.37
2023-05-08T01:56:19.056Z,38.34
2023-05-08T01:58:45.406Z,38.35
2023-05-08T02:01:12.672Z,38.48
2023-05-08T02:03:39.781Z,38.47
2023-05-08T02:06:07.062Z,38.34
2023-05-08T02:08:33.396Z,38.28
2023-05-08T02:10:59.817Z,38.31
2023-05-08T02:13:26.186Z,38.09
2023-05-08T02:15:53.286Z,38.06
2023-05-08T02:18:20.653Z,38.16
2023-05-08T02:20:47.755Z,38.03
2023-05-08T02:23:14.063Z,38.15
2023-05-08T02:25:40.384Z,38.15
2023-05-08T02:28:06.726Z,37.97
2023-05-08T02:30:33.064Z,38.17
2023-05-08T02:33:00.830Z,38.10
2023-05-08T02:35:27.331Z,38.03
2023-05-08T02:37:53.910Z,38.17
2023-05-08T02:40:20.697Z,37.95
2023-05-08T02:42:47.110Z,37.93
2023-05-08T02:45:13.441Z,37.83
2023-05-08T02:47:51.738Z,37.96
2023-05-08T02:50:19.251Z,37.99
2023-05-08T02:52:46.356Z,37.82
2023-05-08T02:55:18.670Z,37.84
2023-05-08T02:57:49.004Z,37.99
2023-05-08T03:00:16.337Z,37.82
2023-05-08T03:02:43.918Z,38.01
2023-05-08T03:05:15.262Z,37.94
2023-05-08T03:07:41.843Z,37.96
2023-05-08T03:10:10.633Z,37.75
2023-05-08T03:12:39.437Z,37.89
2023-05-08T03:15:07.745Z,38.06
2023-05-08T03:17:34.088Z,37.91
2023-05-08T03:20:02.003Z,38.15
2023-05-08T03:22:28.650Z,37.89
2023-05-08T03:24:55.012Z,37.97
2023-05-08T03:27:21.438Z,37.89
2023-05-08T03:29:47.809Z,37.93
2023-05-08T03:32:14.132Z,38.00
2023-05-08T03:34:40.570Z,37.91
2023-05-08T03:37:06.880Z,37.99
2023-05-08T03:39:33.229Z,37.96
2023-05-08T03:41:59.535Z,37.97
2023-05-08T03:44:25.915Z,37.90
2023-05-08T03:46:52.757Z,37.81
2023-05-08T03:49:19.270Z,37.93
2023-05-08T03:51:45.612Z,38.01
2023-05-08T03:54:11.930Z,37.79
2023-05-08T03:56:38.256Z,37.95
2023-05-08T03:59:08.973Z,37.85
2023-05-08T04:01:41.881Z,37.86
2023-05-08T04:04:29.967Z,37.84
2023-05-08T04:07:22.737Z,37.83
2023-05-08T04:09:59.727Z,38.07
2023-05-08T04:12:32.302Z,37.70
2023-05-08T04:15:01.503Z,37.68
2023-05-08T04:17:44.200Z,37.73
2023-05-08T04:20:12.235Z,37.99
2023-05-08T04:22:38.643Z,37.76
2023-05-08T04:25:05.483Z,37.80
2023-05-08T04:27:31.819Z,37.86
2023-05-08T04:29:58.164Z,37.79
2023-05-08T04:32:24.574Z,37.75
2023-05-08T04:34:50.902Z,37.83
2023-05-08T04:37:26.787Z,37.85
2023-05-08T04:39:53.215Z,37.87
2023-05-08T04:42:19.682Z,37.93
2023-05-08T04:44:47.444Z,37.64
2023-05-08T04:47:14.117Z,37.77
2023-05-08T04:49:40.646Z,37.70
2023-05-08T04:52:07.706Z,37.70
2023-05-08T04:54:34.151Z,37.67
2023-05-08T04:57:00.703Z,37.67
2023-05-08T04:59:27.037Z,37.46
2023-05-08T05:01:53.506Z,37.53
2023-05-08T05:04:19.876Z,37.58
2023-05-08T05:06:46.202Z,37.74
2023-05-08T05:09:12.537Z,37.58
2023-05-08T05:11:38.856Z,37.71
2023-05-08T05:14:06.233Z,37.74
2023-05-08T05:16:32.722Z,37.59
2023-05-08T05:18:59.192Z,37.71
2023-05-08T05:21:26.011Z,37.72
2023-05-08T05:23:52.327Z,37.71
2023-05-08T05:26:18.711Z,37.59
2023-05-08T05:28:45.029Z,37.66
2023-05-08T05:31:11.447Z,37.78
2023-05-08T05:33:37.889Z,37.73
2023-05-08T05:36:04.232Z,37.65
2023-05-08T05:38:30.549Z,37.53
2023-05-08T05:40:57.183Z,37.55
2023-05-08T05:43:23.496Z,37.55
2023-05-08T05:45:49.815Z,37.40
2023-05-08T05:48:16.480Z,37.44
2023-05-08T05:50:43.020Z,37.29
2023-05-08T05:53:09.902Z,37.46
2023-05-08T05:55:36.225Z,37.45
2023-05-08T05:58:02.597Z,37.52
2023-05-08T06:00:30.562Z,37.51
2023-05-08T06:02:57.572Z,37.61
2023-05-08T06:05:24.060Z,37.35
2023-05-08T06:07:50.479Z,37.55
2023-05-08T06:10:16.800Z,37.50
2023-05-08T06:12:43.137Z,37.37
2023-05-08T06:15:09.924Z,37.63
2023-05-08T06:17:36.404Z,37.52
2023-05-08T06:20:03.083Z,37.33
2023-05-08T06:22:30.019Z,37.24
2023-05-08T06:24:57.275Z,37.85
2023-05-08T06:27:23.723Z,37.56
2023-05-08T06:29:52.860Z,37.86
2023-05-08T06:32:19.507Z,37.67
2023-05-08T06:34:45.947Z,37.53
2023-05-08T06:37:12.329Z,37.85
2023-05-08T06:39:38.691Z,37.80
2023-05-08T06:42:08.161Z,37.83
2023-05-08T06:44:35.064Z,37.71
2023-05-08T06:47:01.584Z,37.72
2023-05-08T06:49:27.928Z,37.60
2023-05-08T06:51:55.920Z,37.54
2023-05-08T06:54:24.188Z,37.44
2023-05-08T06:56:50.579Z,37.33
2023-05-08T06:59:17.064Z,37.54
2023-05-08T07:01:43.538Z,37.33
2023-05-08T07:04:10.149Z,37.18
2023-05-08T07:06:36.558Z,37.34
2023-05-08T07:09:02.936Z,36.86
2023-05-08T07:11:29.271Z,36.98
2023-05-08T07:13:55.822Z,36.99
2023-05-08T07:16:22.236Z,36.95
2023-05-08T07:18:48.650Z,37.19
2023-05-08T07:21:15.968Z,37.13
2023-05-08T07:26:08.530Z,36.78
2023-05-08T07:28:34.868Z,36.77
2023-05-08T07:31:03.962Z,36.69
2023-05-08T07:33:30.328Z,36.87
2023-05-08T07:35:56.642Z,36.73
2023-05-08T07:38:22.971Z,36.62
2023-05-08T07:40:51.465Z,36.29
2023-05-08T07:43:17.785Z,36.28
2023-05-08T07:45:44.095Z,36.40
2023-05-08T07:48:11.752Z,36.80
2023-05-08T07:50:38.215Z,36.75
2023-05-08T07:53:04.569Z,37.07
2023-05-08T07:55:30.974Z,36.47
2023-05-08T07:57:57.480Z,36.51
2023-05-08T08:00:23.967Z,36.52
2023-05-08T08:02:50.492Z,36.79
2023-05-08T08:05:17.138Z,36.76
2023-05-08T08:07:43.632Z,36.78
2023-05-08T08:10:09.968Z,36.79
2023-05-08T08:12:36.306Z,36.68
2023-05-08T08:15:02.652Z,36.72
2023-05-08T08:17:29.246Z,36.51
2023-05-08T08:19:55.780Z,36.79
2023-05-08T08:22:22.104Z,36.62
2023-05-08T08:24:48.443Z,36.68
2023-05-08T08:27:14.801Z,36.43
2023-05-08T08:29:41.184Z,36.75
2023-05-08T08:32:07.576Z,36.54
2023-05-08T08:34:33.893Z,36.58
2023-05-08T08:37:00.232Z,36.28
2023-05-08T08:39:26.569Z,36.48
2023-05-08T08:41:52.966Z,36.59
2023-05-08T08:44:19.310Z,36.33
2023-05-08T08:46:49.741Z,36.47
2023-05-08T08:49:17.775Z,36.51
2023-05-08T08:51:50.845Z,36.67
2023-05-08T08:54:20.305Z,36.59
2023-05-08T08:56:46.865Z,36.57
2023-05-08T08:59:13.335Z,36.23
2023-05-08T09:01:39.847Z,36.52
2023-05-08T09:04:06.482Z,36.48
2023-05-08T09:06:35.903Z,36.58
2023-05-08T09:09:02.211Z,36.64
2023-05-08T09:11:30.329Z,36.39
2023-05-08T09:13:56.639Z,36.51
2023-05-08T09:16:23.562Z,36.61
2023-05-08T09:18:49.906Z,36.62
2023-05-08T09:21:16.391Z,37.31
2023-05-08T09:23:55.087Z,36.99
2023-05-08T09:26:32.525Z,37.07
2023-05-08T09:29:11.868Z,36.92
2023-05-08T09:31:41.437Z,36.84
2023-05-08T09:34:11.385Z,36.84
2023-05-08T09:36:39.944Z,36.54
2023-05-08T09:39:10.444Z,36.63
2023-05-08T09:41:36.857Z,36.48
2023-05-08T09:44:03.958Z,36.26
2023-05-08T09:46:30.359Z,36.25
2023-05-08T09:48:57.301Z,36.12
2023-05-08T09:51:23.867Z,36.38
2023-05-08T09:53:52.120Z,36.50
2023-05-08T09:56:30.452Z,36.65
2023-05-08T09:58:58.505Z,36.38
2023-05-08T10:01:28.737Z,36.57
2023-05-08T10:03:55.166Z,36.76
2023-05-08T10:06:21.605Z,36.45
2023-05-08T10:08:48.393Z,36.70
2023-05-08T10:11:16.373Z,36.33
2023-05-08T10:13:43.377Z,36.30
2023-05-08T10:16:14.470Z,36.17
2023-05-08T10:18:40.818Z,36.45
2023-05-08T10:21:07.951Z,36.78
2023-05-08T10:23:34.260Z,36.64
2023-05-08T10:26:03.493Z,36.68
2023-05-08T10:28:33.482Z,36.33
2023-05-08T10:31:00.385Z,36.49
2023-05-08T10:33:30.963Z,36.39
2023-05-08T10:35:58.049Z,36.26
2023-05-08T10:38:24.442Z,36.42
2023-05-08T10:40:52.910Z,36.55
2023-05-08T10:43:19.316Z,36.51
2023-05-08T10:45:45.662Z,36.32
2023-05-08T10:48:18.055Z,36.68
2023-05-08T10:50:48.232Z,36.52
2023-05-08T10:53:23.354Z,36.22
2023-05-08T10:55:50.380Z,36.57
2023-05-08T10:58:40.375Z,36.48
2023-05-08T11:01:07.942Z,36.51
2023-05-08T11:03:49.491Z,36.20
2023-05-08T11:06:16.188Z,36.05
2023-05-08T11:08:49.466Z,36.45
2023-05-08T11:11:15.743Z,36.61
2023-05-08T11:13:42.738Z,36.56
2023-05-08T11:16:12.322Z,36.56
2023-05-08T11:18:48.964Z,36.56
2023-05-08T11:21:16.781Z,37.04
2023-05-08T11:23:43.104Z,36.82
2023-05-08T11:26:13.071Z,36.75
2023-05-08T11:28:40.092Z,36.58
2023-05-08T11:31:07.152Z,36.86
2023-05-08T11:33:41.006Z,36.56
2023-05-08T11:36:07.255Z,36.41
2023-05-08T11:38:35.677Z,36.67
2023-05-08T11:41:12.101Z,36.41
2023-05-08T11:43:38.405Z,36.44
2023-05-08T11:46:04.660Z,36.32
2023-05-08T11:48:34.014Z,36.65
2023-05-08T11:51:00.431Z,36.52
2023-05-08T11:53:26.922Z,36.34
2023-05-08T11:55:53.320Z,36.61
2023-05-08T11:58:20.034Z,36.55
2023-05-08T12:00:46.758Z,36.47
2023-05-08T12:03:13.720Z,36.31
2023-05-08T12:05:40.649Z,36.24
2023-05-08T12:08:07.291Z,36.47
2023-05-08T12:10:39.021Z,36.36
2023-05-08T12:13:14.950Z,36.29
2023-05-08T12:15:41.306Z,36.20
2023-05-08T12:18:07.679Z,36.33
2023-05-08T12:20:34.053Z,36.32
2023-05-08T12:23:01.969Z,36.42
2023-05-08T12:25:28.294Z,36.32
2023-05-08T12:27:54.631Z,36.47
2023-05-08T12:30:20.992Z,36.55
2023-05-08T12:32:47.386Z,36.38
2023-05-08T12:35:13.870Z,36.57
2023-05-08T12:37:40.237Z,36.35
2023-05-08T12:40:06.821Z,36.55
2023-05-08T12:42:43.075Z,36.44
2023-05-08T12:45:09.468Z,36.58
2023-05-08T12:47:35.836Z,36.69
2023-05-08T12:50:02.235Z,36.57
2023-05-08T12:52:28.961Z,36.63
2023-05-08T12:54:55.374Z,36.71
2023-05-08T12:57:22.674Z,36.70
2023-05-08T12:59:49.049Z,36.76
2023-05-08T13:02:19.490Z,36.75
2023-05-08T13:04:46.013Z,36.62
2023-05-08T13:07:12.415Z,36.82
2023-05-08T13:09:39.025Z,36.82
2023-05-08T13:12:06.698Z,36.79
2023-05-08T13:14:33.039Z,36.52
2023-05-08T13:16:59.921Z,36.88
2023-05-08T13:19:27.502Z,36.83
2023-05-08T13:21:53.825Z,36.80
2023-05-08T13:24:20.156Z,36.80
2023-05-08T13:26:46.796Z,36.84
2023-05-08T13:29:13.228Z,36.80
2023-05-08T13:31:39.605Z,36.71
2023-05-08T13:34:05.989Z,36.68
2023-05-08T13:36:32.305Z,36.55
2023-05-08T13:38:58.622Z,36.89
2023-05-08T13:41:24.947Z,36.73
2023-05-08T13:43:51.269Z,36.93
2023-05-08T13:46:17.761Z,36.80
2023-05-08T13:48:44.181Z,36.95
2023-05-08T13:51:10.532Z,36.89
2023-05-08T13:53:36.855Z,36.66
2023-05-08T13:56:03.184Z,36.75
2023-05-08T13:58:29.493Z,36.77
2023-05-08T14:00:55.898Z,37.05
2023-05-08T14:03:22.400Z,37.06
2023-05-08T14:05:48.802Z,37.05
2023-05-08T14:08:15.111Z,37.17
2023-05-08T14:10:41.484Z,37.15
2023-05-08T14:13:08.310Z,37.08
2023-05-08T14:15:37.264Z,36.95
2023-05-08T14:18:03.899Z,37.26
2023-05-08T14:20:30.590Z,37.29
2023-05-08T14:23:00.031Z,37.34
2023-05-08T14:25:26.673Z,37.49
2023-05-08T14:27:53.019Z,37.67
2023-05-08T14:30:19.355Z,37.83
2023-05-08T14:32:45.785Z,38.49
2023-05-08T14:35:14.416Z,38.29
2023-05-08T14:37:41.439Z,37.98
2023-05-08T14:40:08.003Z,37.98
2023-05-08T14:42:34.372Z,38.14
2023-05-08T14:45:00.862Z,38.36
2023-05-08T14:47:27.381Z,38.25
2023-05-08T14:52:20.250Z,38.42
2023-05-08T14:54:52.876Z,38.19
2023-05-08T14:57:19.756Z,38.29
2023-05-08T15:02:16.897Z,38.48
2023-05-08T15:04:44.129Z,38.83
2023-05-08T15:07:10.512Z,38.56
2023-05-08T15:09:36.849Z,38.78
2023-05-08T15:12:03.299Z,38.86
2023-05-08T15:14:29.751Z,38.91
2023-05-08T15:16:56.096Z,38.79
2023-05-08T15:19:22.464Z,38.72
2023-05-08T15:21:48.772Z,38.61
2023-05-08T15:24:15.101Z,38.58
2023-05-08T15:26:41.408Z,38.70
2023-05-08T15:29:07.795Z,38.79
2023-05-08T15:31:34.204Z,38.74
2023-05-08T15:34:00.620Z,38.97
2023-05-08T15:36:28.566Z,38.71
2023-05-08T15:38:54.964Z,38.86
2023-05-08T15:41:21.760Z,38.77
2023-05-08T15:43:48.089Z,38.70
2023-05-08T15:46:14.485Z,38.70
2023-05-08T15:48:40.834Z,38.54
2023-05-08T15:51:07.182Z,38.57
2023-05-08T15:53:34.028Z,38.40
2023-05-08T15:56:00.345Z,38.71
2023-05-08T15:58:27.599Z,38.60
2023-05-08T16:00:54.124Z,38.97
2023-05-08T16:03:20.572Z,38.85
2023-05-08T16:05:47.016Z,38.87
2023-05-08T16:08:13.980Z,38.66
2023-05-08T16:10:40.819Z,38.76
2023-05-08T16:13:07.226Z,38.80
2023-05-08T16:15:33.622Z,38.72
2023-05-08T16:17:59.990Z,38.74
2023-05-08T16:20:26.360Z,38.61
2023-05-08T16:22:53.982Z,38.90
2023-05-08T16:25:20.365Z,38.67
2023-05-08T16:27:46.685Z,38.66
2023-05-08T16:30:13.145Z,38.71
2023-05-08T16:32:42.747Z,38.70
2023-05-08T16:35:09.258Z,38.83
2023-05-08T16:37:37.293Z,38.66
2023-05-08T16:40:04.014Z,38.68
2023-05-08T16:42:30.338Z,38.64
2023-05-08T16:44:56.653Z,38.50
2023-05-08T16:47:23.005Z,38.66
2023-05-08T16:49:49.326Z,38.45
2023-05-08T16:52:15.667Z,38.64
2023-05-08T16:54:42.006Z,38.49
2023-05-08T16:57:08.340Z,38.63
2023-05-08T16:59:34.658Z,38.62
2023-05-08T17:02:01.057Z,38.47
2023-05-08T17:04:28.850Z,38.49
2023-05-08T17:06:57.285Z,38.50
2023-05-08T17:09:25.251Z,38.58
2023-05-08T17:11:51.661Z,38.66
2023-05-08T17:14:18.485Z,38.97
2023-05-08T17:16:44.879Z,38.76
2023-05-08T17:19:11.237Z,38.86
2023-05-08T17:21:37.549Z,38.87
2023-05-08T17:24:03.957Z,38.85
2023-05-08T17:26:31.713Z,38.79
2023-05-08T17:28:58.026Z,38.95
2023-05-08T17:31:24.363Z,38.68
2023-05-08T17:33:50.830Z,38.78
2023-05-08T17:36:17.161Z,38.83
2023-05-08T17:38:45.923Z,38.79
2023-05-08T17:41:12.520Z,38.56
2023-05-08T17:43:39.421Z,38.57
2023-05-08T17:46:06.167Z,38.62
2023-05-08T17:48:32.689Z,38.52
2023-05-08T17:50:59.297Z,38.43
2023-05-08T17:53:25.708Z,38.64
2023-05-08T17:55:52.074Z,38.70
2023-05-08T17:58:18.414Z,38.56
2023-05-08T18:00:44.747Z,38.40
2023-05-08T18:03:12.123Z,38.53
2023-05-08T18:05:38.699Z,38.42
2023-05-08T18:08:05.071Z,38.30
2023-05-08T18:10:32.320Z,38.55
2023-05-08T18:12:58.683Z,38.50
2023-05-08T18:15:24.999Z,38.45
2023-05-08T18:17:53.451Z,38.26
2023-05-08T18:20:23.475Z,38.30
2023-05-08T18:22:50.178Z,38.73
2023-05-08T18:25:16.491Z,38.50
2023-05-08T18:27:43.392Z,38.49
2023-05-08T18:30:09.816Z,38.32
2023-05-08T18:32:36.735Z,38.48
2023-05-08T18:35:03.154Z,38.58
2023-05-08T18:37:29.498Z,38.48
2023-05-08T18:39:55.906Z,38.54
2023-05-08T18:42:22.249Z,38.65
2023-05-08T18:44:48.619Z,38.57
2023-05-08T18:47:14.993Z,38.39
2023-05-08T18:49:41.368Z,38.60
2023-05-08T18:52:07.722Z,38.48
2023-05-08T18:54:34.051Z,38.86
2023-05-08T18:57:00.363Z,38.42
2023-05-08T18:59:26.704Z,38.58
2023-05-08T19:01:53.060Z,38.51
2023-05-08T19:04:19.442Z,38.59
2023-05-08T19:06:45.898Z,38.81
2023-05-08T19:09:12.816Z,38.73
2023-05-08T19:11:39.138Z,38.67
2023-05-08T19:14:05.527Z,38.73
2023-05-08T19:16:32.181Z,38.74
2023-05-08T19:18:58.547Z,38.77
2023-05-08T19:21:24.955Z,38.85
2023-05-08T19:23:51.359Z,38.73
2023-05-08T19:26:18.560Z,38.82
2023-05-08T19:28:44.887Z,38.79
2023-05-08T19:31:11.267Z,38.73
2023-05-08T19:33:37.628Z,38.55
2023-05-08T19:36:03.953Z,38.58
2023-05-08T19:38:30.290Z,38.71
2023-05-08T19:40:57.939Z,38.41
2023-05-08T19:43:25.235Z,38.66
2023-05-08T19:45:51.596Z,38.83
2023-05-08T19:48:19.989Z,38.54
2023-05-08T19:50:46.452Z,38.66
2023-05-08T19:53:12.780Z,38.71
2023-05-08T19:55:39.194Z,38.69
2023-05-08T19:58:05.519Z,38.47
2023-05-08T20:00:31.901Z,38.76
2023-05-08T20:02:58.289Z,38.61
2023-05-08T20:05:24.644Z,38.48
2023-05-08T20:07:50.971Z,38.44
2023-05-08T20:10:17.295Z,38.44
2023-05-08T20:12:43.750Z,38.67
2023-05-08T20:15:10.442Z,38.80
2023-05-08T20:17:36.818Z,38.62
2023-05-08T20:20:03.462Z,38.85
2023-05-08T20:22:29.806Z,38.43
2023-05-08T20:24:56.183Z,38.70
2023-05-08T20:27:22.531Z,38.73
2023-05-08T20:29:48.847Z,38.71
2023-05-08T20:32:16.404Z,38.57
2023-05-08T20:34:44.393Z,38.62
2023-05-08T20:37:10.718Z,38.63
2023-05-08T20:39:37.036Z,38.38
2023-05-08T20:42:03.354Z,38.55
2023-05-08T20:44:29.734Z,38.42
2023-05-08T20:46:56.105Z,38.50
2023-05-08T20:49:22.425Z,38.49
2023-05-08T20:51:48.797Z,38.31
2023-05-08T20:54:15.265Z,38.31
2023-05-08T20:56:41.605Z,38.42
2023-05-08T20:59:08.267Z,38.51
2023-05-08T21:01:34.620Z,38.42
2023-05-08T21:04:00.966Z,38.24
2023-05-08T21:06:27.519Z,38.18
2023-05-08T21:08:53.925Z,38.36
2023-05-08T21:11:21.040Z,38.49
2023-05-08T21:13:47.392Z,38.30
2023-05-08T21:16:13.777Z,38.49
2023-05-08T21:18:40.173Z,38.17
2023-05-08T21:21:15.834Z,38.23
2023-05-08T21:23:42.148Z,38.22
2023-05-08T21:26:08.480Z,38.30
2023-05-08T21:28:34.957Z,38.50
2023-05-08T21:31:01.304Z,38.31
2023-05-08T21:33:27.663Z,38.36
2023-05-08T21:35:53.971Z,38.30
2023-05-08T21:38:20.364Z,38.19
2023-05-08T21:40:46.674Z,38.28
2023-05-08T21:43:13.093Z,38.14
2023-05-08T21:45:39.436Z,38.32
2023-05-08T21:48:05.901Z,38.35
2023-05-08T21:50:32.287Z,38.17
2023-05-08T21:52:58.653Z,38.22
2023-05-08T21:55:25.027Z,38.15
2023-05-08T21:57:51.348Z,38.10
2023-05-08T22:00:17.793Z,38.11
2023-05-08T22:02:44.151Z,38.03
2023-05-08T22:05:10.550Z,38.04
2023-05-08T22:07:36.928Z,37.90
2023-05-08T22:10:03.953Z,37.94
2023-05-08T22:12:30.383Z,37.94
2023-05-08T22:14:56.705Z,37.76
2023-05-08T22:17:23.047Z,37.90
2023-05-08T22:19:49.401Z,37.69
2023-05-08T22:22:15.717Z,37.82
2023-05-08T22:24:42.055Z,37.74
2023-05-08T22:27:08.363Z,37.55
2023-05-08T22:29:34.698Z,37.65
2023-05-08T22:32:01.138Z,37.64
2023-05-08T22:34:27.497Z,37.51
2023-05-08T22:36:53.819Z,37.64
2023-05-08T22:39:20.128Z,37.48
2023-05-08T22:41:46.596Z,37.37
2023-05-08T22:44:12.964Z,37.50
2023-05-08T22:46:39.411Z,37.25
2023-05-08T22:49:06.027Z,37.48
2023-05-08T22:51:32.640Z,37.35
2023-05-08T22:53:58.976Z,37.45
2023-05-08T22:56:25.601Z,37.26
2023-05-08T22:58:54.548Z,37.38
2023-05-08T23:01:21.540Z,37.45
2023-05-08T23:03:47.993Z,37.25
2023-05-08T23:06:14.311Z,37.45
2023-05-08T23:08:40.625Z,37.40
2023-05-08T23:11:06.937Z,37.31
2023-05-08T23:13:33.244Z,37.20
2023-05-08T23:15:59.578Z,36.98
2023-05-08T23:18:25.950Z,37.05
2023-05-08T23:20:52.282Z,37.05
2023-05-08T23:23:18.594Z,36.94
2023-05-08T23:25:44.908Z,36.92
2023-05-08T23:28:11.235Z,36.75
2023-05-08T23:30:37.616Z,36.89
2023-05-08T23:33:04.350Z,36.78
2023-05-08T23:35:30.726Z,36.60
2023-05-08T23:37:57.057Z,36.54
2023-05-08T23:40:23.378Z,36.22
2023-05-08T23:42:49.708Z,36.35
2023-05-08T23:45:16.446Z,36.00
2023-05-08T23:47:43.198Z,36.24
2023-05-08T23:50:09.781Z,36.20
2023-05-08T23:52:36.106Z,36.23
2023-05-08T23:55:02.433Z,36.25
2023-05-08T23:57:28.756Z,36.33
2023-05-08T23:59:55.076Z,36.11
